sensor_id;sensor_type;location;lat;lon;timestamp;P1;durP1;ratioP1;P2;durP2;ratioP2
10851;SDS011;5479;52.046;6.314;2023-04-01T00:01:12;7.47;;;3.83;;
10851;SDS011;5479;52.046;6.314;2023-04-01T00:03:42;8.57;;;3.80;;
10851;SDS011;5479;52.046;6.314;2023-04-01T00:06:11;7.67;;;3.60;;
10851;SDS011;5479;52.046;6.314;2023-04-01T00:08:41;6.50;;;3.53;;
10851;SDS011;5479;52.046;6.314;2023-04-01T00:11:11;6.63;;;3.50;;
10851;SDS011;5479;52.046;6.314;2023-04-01T00:13:39;11.57;;;3.93;;
10851;SDS011;5479;52.046;6.314;2023-04-01T00:16:07;6.17;;;3.20;;
10851;SDS011;5479;52.046;6.314;2023-04-01T00:18:35;6.57;;;3.40;;
10851;SDS011;5479;52.046;6.314;2023-04-01T00:21:03;6.27;;;3.30;;
10851;SDS011;5479;52.046;6.314;2023-04-01T00:23:31;7.00;;;3.40;;
10851;SDS011;5479;52.046;6.314;2023-04-01T00:25:59;6.20;;;3.33;;
10851;SDS011;5479;52.046;6.314;2023-04-01T00:28:30;6.23;;;3.17;;
10851;SDS011;5479;52.046;6.314;2023-04-01T00:30:58;6.93;;;3.50;;
10851;SDS011;5479;52.046;6.314;2023-04-01T00:33:30;5.33;;;3.20;;
10851;SDS011;5479;52.046;6.314;2023-04-01T00:36:05;6.63;;;3.20;;
10851;SDS011;5479;52.046;6.314;2023-04-01T00:38:34;5.70;;;3.17;;
10851;SDS011;5479;52.046;6.314;2023-04-01T00:41:03;9.50;;;3.13;;
10851;SDS011;5479;52.046;6.314;2023-04-01T00:43:33;5.60;;;2.93;;
10851;SDS011;5479;52.046;6.314;2023-04-01T00:46:02;4.73;;;3.10;;
10851;SDS011;5479;52.046;6.314;2023-04-01T00:48:31;6.60;;;3.17;;
10851;SDS011;5479;52.046;6.314;2023-04-01T00:51:04;6.70;;;3.00;;
10851;SDS011;5479;52.046;6.314;2023-04-01T00:53:36;6.20;;;3.17;;
10851;SDS011;5479;52.046;6.314;2023-04-01T00:56:09;6.70;;;3.20;;
10851;SDS011;5479;52.046;6.314;2023-04-01T00:58:41;4.93;;;3.03;;
10851;SDS011;5479;52.046;6.314;2023-04-01T01:01:14;5.77;;;3.13;;
10851;SDS011;5479;52.046;6.314;2023-04-01T01:03:43;7.20;;;3.63;;
10851;SDS011;5479;52.046;6.314;2023-04-01T01:06:13;5.73;;;3.30;;
10851;SDS011;5479;52.046;6.314;2023-04-01T01:09:01;5.90;;;3.07;;
10851;SDS011;5479;52.046;6.314;2023-04-01T01:11:35;6.53;;;3.53;;
10851;SDS011;5479;52.046;6.314;2023-04-01T01:14:11;6.47;;;3.60;;
10851;SDS011;5479;52.046;6.314;2023-04-01T01:16:53;5.67;;;3.80;;
10851;SDS011;5479;52.046;6.314;2023-04-01T01:19:32;7.53;;;4.10;;
10851;SDS011;5479;52.046;6.314;2023-04-01T01:22:21;6.43;;;4.30;;
10851;SDS011;5479;52.046;6.314;2023-04-01T01:28:01;7.93;;;4.20;;
10851;SDS011;5479;52.046;6.314;2023-04-01T01:30:46;7.63;;;4.80;;
10851;SDS011;5479;52.046;6.314;2023-04-01T01:33:27;7.10;;;4.90;;
10851;SDS011;5479;52.046;6.314;2023-04-01T01:36:16;8.77;;;5.47;;
10851;SDS011;5479;52.046;6.314;2023-04-01T01:38:48;8.27;;;5.30;;
10851;SDS011;5479;52.046;6.314;2023-04-01T01:41:18;7.97;;;5.03;;
10851;SDS011;5479;52.046;6.314;2023-04-01T01:43:48;6.77;;;5.00;;
10851;SDS011;5479;52.046;6.314;2023-04-01T01:46:22;8.30;;;6.00;;
10851;SDS011;5479;52.046;6.314;2023-04-01T01:48:52;10.20;;;5.97;;
10851;SDS011;5479;52.046;6.314;2023-04-01T01:51:24;11.80;;;6.43;;
10851;SDS011;5479;52.046;6.314;2023-04-01T01:53:55;9.63;;;6.20;;
10851;SDS011;5479;52.046;6.314;2023-04-01T01:56:24;11.07;;;6.87;;
10851;SDS011;5479;52.046;6.314;2023-04-01T01:58:56;9.70;;;6.43;;
10851;SDS011;5479;52.046;6.314;2023-04-01T02:01:28;11.97;;;7.43;;
10851;SDS011;5479;52.046;6.314;2023-04-01T02:03:59;11.33;;;7.37;;
10851;SDS011;5479;52.046;6.314;2023-04-01T02:06:29;10.40;;;7.30;;
10851;SDS011;5479;52.046;6.314;2023-04-01T02:09:03;13.60;;;8.00;;
10851;SDS011;5479;52.046;6.314;2023-04-01T02:11:33;12.67;;;7.80;;
10851;SDS011;5479;52.046;6.314;2023-04-01T02:14:05;13.23;;;7.50;;
10851;SDS011;5479;52.046;6.314;2023-04-01T02:16:36;11.40;;;8.00;;
10851;SDS011;5479;52.046;6.314;2023-04-01T02:19:07;12.77;;;8.47;;
10851;SDS011;5479;52.046;6.314;2023-04-01T02:21:40;13.50;;;8.50;;
10851;SDS011;5479;52.046;6.314;2023-04-01T02:24:11;12.77;;;8.77;;
10851;SDS011;5479;52.046;6.314;2023-04-01T02:26:42;12.03;;;8.47;;
10851;SDS011;5479;52.046;6.314;2023-04-01T02:29:12;13.90;;;8.37;;
10851;SDS011;5479;52.046;6.314;2023-04-01T02:31:41;15.13;;;8.13;;
10851;SDS011;5479;52.046;6.314;2023-04-01T02:34:10;13.63;;;8.90;;
10851;SDS011;5479;52.046;6.314;2023-04-01T02:36:39;12.33;;;9.13;;
10851;SDS011;5479;52.046;6.314;2023-04-01T02:39:08;15.10;;;9.57;;
10851;SDS011;5479;52.046;6.314;2023-04-01T02:41:39;14.03;;;9.43;;
10851;SDS011;5479;52.046;6.314;2023-04-01T02:44:08;13.80;;;9.27;;
10851;SDS011;5479;52.046;6.314;2023-04-01T02:46:37;11.83;;;8.67;;
10851;SDS011;5479;52.046;6.314;2023-04-01T02:49:05;14.30;;;9.23;;
10851;SDS011;5479;52.046;6.314;2023-04-01T02:51:33;13.63;;;9.50;;
10851;SDS011;5479;52.046;6.314;2023-04-01T02:54:03;12.27;;;9.33;;
10851;SDS011;5479;52.046;6.314;2023-04-01T02:56:31;11.57;;;8.23;;
10851;SDS011;5479;52.046;6.314;2023-04-01T02:58:59;13.57;;;8.43;;
10851;SDS011;5479;52.046;6.314;2023-04-01T03:01:27;11.83;;;8.33;;
10851;SDS011;5479;52.046;6.314;2023-04-01T03:03:55;12.13;;;8.30;;
10851;SDS011;5479;52.046;6.314;2023-04-01T03:06:23;10.53;;;7.33;;
10851;SDS011;5479;52.046;6.314;2023-04-01T03:08:51;11.93;;;7.20;;
10851;SDS011;5479;52.046;6.314;2023-04-01T03:11:21;11.47;;;6.67;;
10851;SDS011;5479;52.046;6.314;2023-04-01T03:13:49;10.27;;;6.77;;
10851;SDS011;5479;52.046;6.314;2023-04-01T03:16:17;10.00;;;5.93;;
10851;SDS011;5479;52.046;6.314;2023-04-01T03:18:46;9.20;;;6.00;;
10851;SDS011;5479;52.046;6.314;2023-04-01T03:21:16;8.77;;;5.60;;
10851;SDS011;5479;52.046;6.314;2023-04-01T03:23:44;10.20;;;6.27;;
10851;SDS011;5479;52.046;6.314;2023-04-01T03:26:13;10.20;;;6.23;;
10851;SDS011;5479;52.046;6.314;2023-04-01T03:28:42;8.83;;;5.77;;
10851;SDS011;5479;52.046;6.314;2023-04-01T03:31:11;11.47;;;6.30;;
10851;SDS011;5479;52.046;6.314;2023-04-01T03:33:39;8.73;;;5.63;;
10851;SDS011;5479;52.046;6.314;2023-04-01T03:36:07;9.40;;;5.70;;
10851;SDS011;5479;52.046;6.314;2023-04-01T03:38:38;8.93;;;5.93;;
10851;SDS011;5479;52.046;6.314;2023-04-01T03:41:07;8.80;;;5.30;;
10851;SDS011;5479;52.046;6.314;2023-04-01T03:43:39;10.40;;;6.00;;
10851;SDS011;5479;52.046;6.314;2023-04-01T03:46:09;8.33;;;5.17;;
10851;SDS011;5479;52.046;6.314;2023-04-01T03:48:37;8.20;;;5.13;;
10851;SDS011;5479;52.046;6.314;2023-04-01T03:51:06;7.27;;;5.20;;
10851;SDS011;5479;52.046;6.314;2023-04-01T03:53:34;8.83;;;5.20;;
10851;SDS011;5479;52.046;6.314;2023-04-01T03:56:03;9.00;;;5.60;;
10851;SDS011;5479;52.046;6.314;2023-04-01T03:58:32;10.13;;;5.63;;
10851;SDS011;5479;52.046;6.314;2023-04-01T04:01:00;9.70;;;5.83;;
10851;SDS011;5479;52.046;6.314;2023-04-01T04:03:29;10.13;;;5.93;;
10851;SDS011;5479;52.046;6.314;2023-04-01T04:05:57;8.73;;;5.90;;
10851;SDS011;5479;52.046;6.314;2023-04-01T04:08:25;9.37;;;5.97;;
10851;SDS011;5479;52.046;6.314;2023-04-01T04:10:56;8.87;;;5.20;;
10851;SDS011;5479;52.046;6.314;2023-04-01T04:13:25;7.20;;;4.83;;
10851;SDS011;5479;52.046;6.314;2023-04-01T04:15:53;7.73;;;5.17;;
10851;SDS011;5479;52.046;6.314;2023-04-01T04:18:21;7.70;;;5.03;;
10851;SDS011;5479;52.046;6.314;2023-04-01T04:20:50;6.97;;;4.50;;
10851;SDS011;5479;52.046;6.314;2023-04-01T04:23:18;7.60;;;4.93;;
10851;SDS011;5479;52.046;6.314;2023-04-01T04:25:53;8.33;;;5.10;;
10851;SDS011;5479;52.046;6.314;2023-04-01T04:28:23;8.00;;;5.40;;
10851;SDS011;5479;52.046;6.314;2023-04-01T04:30:52;8.87;;;5.60;;
10851;SDS011;5479;52.046;6.314;2023-04-01T04:33:20;9.97;;;6.33;;
10851;SDS011;5479;52.046;6.314;2023-04-01T04:35:51;10.53;;;6.30;;
10851;SDS011;5479;52.046;6.314;2023-04-01T04:38:22;9.70;;;6.37;;
10851;SDS011;5479;52.046;6.314;2023-04-01T04:40:50;9.03;;;6.30;;
10851;SDS011;5479;52.046;6.314;2023-04-01T04:43:18;8.37;;;5.87;;
10851;SDS011;5479;52.046;6.314;2023-04-01T04:45:46;9.07;;;6.23;;
10851;SDS011;5479;52.046;6.314;2023-04-01T04:48:14;8.90;;;5.97;;
10851;SDS011;5479;52.046;6.314;2023-04-01T04:50:44;8.57;;;6.00;;
10851;SDS011;5479;52.046;6.314;2023-04-01T04:53:15;9.13;;;6.27;;
10851;SDS011;5479;52.046;6.314;2023-04-01T04:55:44;8.57;;;6.00;;
10851;SDS011;5479;52.046;6.314;2023-04-01T04:58:13;7.90;;;5.77;;
10851;SDS011;5479;52.046;6.314;2023-04-01T05:00:41;9.47;;;5.33;;
10851;SDS011;5479;52.046;6.314;2023-04-01T05:03:09;8.93;;;5.83;;
10851;SDS011;5479;52.046;6.314;2023-04-01T05:05:38;7.40;;;5.10;;
10851;SDS011;5479;52.046;6.314;2023-04-01T05:08:06;7.70;;;5.20;;
10851;SDS011;5479;52.046;6.314;2023-04-01T05:10:35;8.00;;;5.10;;
10851;SDS011;5479;52.046;6.314;2023-04-01T05:13:03;7.10;;;4.77;;
10851;SDS011;5479;52.046;6.314;2023-04-01T05:15:31;7.33;;;4.73;;
10851;SDS011;5479;52.046;6.314;2023-04-01T05:18:01;7.77;;;4.83;;
10851;SDS011;5479;52.046;6.314;2023-04-01T05:20:29;7.00;;;4.67;;
10851;SDS011;5479;52.046;6.314;2023-04-01T05:22:57;7.60;;;5.37;;
10851;SDS011;5479;52.046;6.314;2023-04-01T05:25:25;7.13;;;4.77;;
10851;SDS011;5479;52.046;6.314;2023-04-01T05:27:54;7.57;;;4.67;;
10851;SDS011;5479;52.046;6.314;2023-04-01T05:30:22;7.53;;;5.37;;
10851;SDS011;5479;52.046;6.314;2023-04-01T05:32:50;6.67;;;4.87;;
10851;SDS011;5479;52.046;6.314;2023-04-01T05:35:18;6.80;;;4.70;;
10851;SDS011;5479;52.046;6.314;2023-04-01T05:37:46;7.67;;;5.37;;
10851;SDS011;5479;52.046;6.314;2023-04-01T05:40:15;7.57;;;5.47;;
10851;SDS011;5479;52.046;6.314;2023-04-01T05:42:43;8.23;;;5.50;;
10851;SDS011;5479;52.046;6.314;2023-04-01T05:45:13;7.77;;;5.40;;
10851;SDS011;5479;52.046;6.314;2023-04-01T05:47:41;7.90;;;5.50;;
10851;SDS011;5479;52.046;6.314;2023-04-01T05:50:09;7.43;;;5.17;;
10851;SDS011;5479;52.046;6.314;2023-04-01T05:52:38;8.80;;;5.87;;
10851;SDS011;5479;52.046;6.314;2023-04-01T05:55:06;7.93;;;5.70;;
10851;SDS011;5479;52.046;6.314;2023-04-01T05:57:35;8.67;;;5.70;;
10851;SDS011;5479;52.046;6.314;2023-04-01T06:00:04;8.60;;;6.23;;
10851;SDS011;5479;52.046;6.314;2023-04-01T06:02:34;9.13;;;6.53;;
10851;SDS011;5479;52.046;6.314;2023-04-01T06:05:10;9.20;;;6.80;;
10851;SDS011;5479;52.046;6.314;2023-04-01T06:07:41;9.53;;;6.93;;
10851;SDS011;5479;52.046;6.314;2023-04-01T06:10:11;10.10;;;7.03;;
10851;SDS011;5479;52.046;6.314;2023-04-01T06:12:45;10.00;;;6.73;;
10851;SDS011;5479;52.046;6.314;2023-04-01T06:21:37;11.33;;;7.47;;
10851;SDS011;5479;52.046;6.314;2023-04-01T06:27:14;11.60;;;7.93;;
10851;SDS011;5479;52.046;6.314;2023-04-01T06:30:02;11.77;;;8.77;;
10851;SDS011;5479;52.046;6.314;2023-04-01T06:32:56;12.83;;;8.60;;
10851;SDS011;5479;52.046;6.314;2023-04-01T06:35:40;12.53;;;8.83;;
10851;SDS011;5479;52.046;6.314;2023-04-01T06:38:24;13.33;;;8.77;;
10851;SDS011;5479;52.046;6.314;2023-04-01T06:41:08;13.93;;;8.87;;
10851;SDS011;5479;52.046;6.314;2023-04-01T06:44:05;12.33;;;8.87;;
10851;SDS011;5479;52.046;6.314;2023-04-01T06:46:43;11.97;;;8.77;;
10851;SDS011;5479;52.046;6.314;2023-04-01T06:49:28;11.50;;;8.43;;
10851;SDS011;5479;52.046;6.314;2023-04-01T06:52:08;11.77;;;8.53;;
10851;SDS011;5479;52.046;6.314;2023-04-01T06:54:44;11.20;;;7.90;;
10851;SDS011;5479;52.046;6.314;2023-04-01T06:57:19;11.73;;;7.90;;
10851;SDS011;5479;52.046;6.314;2023-04-01T06:59:51;12.53;;;8.37;;
10851;SDS011;5479;52.046;6.314;2023-04-01T07:02:23;12.80;;;8.93;;
10851;SDS011;5479;52.046;6.314;2023-04-01T07:04:56;10.50;;;7.53;;
10851;SDS011;5479;52.046;6.314;2023-04-01T07:07:29;10.53;;;7.27;;
10851;SDS011;5479;52.046;6.314;2023-04-01T07:10:02;11.77;;;8.13;;
10851;SDS011;5479;52.046;6.314;2023-04-01T07:12:37;11.17;;;8.03;;
10851;SDS011;5479;52.046;6.314;2023-04-01T07:15:16;9.83;;;7.17;;
10851;SDS011;5479;52.046;6.314;2023-04-01T07:17:47;10.47;;;6.83;;
10851;SDS011;5479;52.046;6.314;2023-04-01T07:20:20;11.40;;;7.63;;
10851;SDS011;5479;52.046;6.314;2023-04-01T07:22:54;9.83;;;6.80;;
10851;SDS011;5479;52.046;6.314;2023-04-01T07:25:26;10.13;;;6.70;;
10851;SDS011;5479;52.046;6.314;2023-04-01T07:28:00;12.93;;;7.90;;
10851;SDS011;5479;52.046;6.314;2023-04-01T07:30:33;11.37;;;7.60;;
10851;SDS011;5479;52.046;6.314;2023-04-01T07:33:13;12.33;;;7.83;;
10851;SDS011;5479;52.046;6.314;2023-04-01T07:35:50;11.93;;;7.43;;
10851;SDS011;5479;52.046;6.314;2023-04-01T07:38:26;10.40;;;7.07;;
10851;SDS011;5479;52.046;6.314;2023-04-01T07:41:05;10.67;;;6.90;;
10851;SDS011;5479;52.046;6.314;2023-04-01T07:43:44;9.37;;;6.10;;
10851;SDS011;5479;52.046;6.314;2023-04-01T07:46:30;9.13;;;6.10;;
10851;SDS011;5479;52.046;6.314;2023-04-01T07:49:11;10.60;;;7.40;;
10851;SDS011;5479;52.046;6.314;2023-04-01T07:51:45;9.17;;;6.50;;
10851;SDS011;5479;52.046;6.314;2023-04-01T07:54:24;11.73;;;7.43;;
10851;SDS011;5479;52.046;6.314;2023-04-01T07:56:59;12.27;;;7.60;;
10851;SDS011;5479;52.046;6.314;2023-04-01T07:59:33;11.97;;;7.90;;
10851;SDS011;5479;52.046;6.314;2023-04-01T08:02:10;11.17;;;7.50;;
10851;SDS011;5479;52.046;6.314;2023-04-01T08:04:51;12.27;;;8.20;;
10851;SDS011;5479;52.046;6.314;2023-04-01T08:07:29;11.77;;;8.13;;
10851;SDS011;5479;52.046;6.314;2023-04-01T08:10:05;11.40;;;8.30;;
10851;SDS011;5479;52.046;6.314;2023-04-01T08:12:45;12.13;;;7.97;;
10851;SDS011;5479;52.046;6.314;2023-04-01T08:15:21;12.27;;;7.57;;
10851;SDS011;5479;52.046;6.314;2023-04-01T08:17:57;12.00;;;7.57;;
10851;SDS011;5479;52.046;6.314;2023-04-01T08:20:34;13.23;;;8.93;;
10851;SDS011;5479;52.046;6.314;2023-04-01T08:23:07;12.30;;;7.53;;
10851;SDS011;5479;52.046;6.314;2023-04-01T08:25:44;12.73;;;8.00;;
10851;SDS011;5479;52.046;6.314;2023-04-01T08:28:19;13.93;;;8.10;;
10851;SDS011;5479;52.046;6.314;2023-04-01T08:30:51;13.17;;;8.43;;
10851;SDS011;5479;52.046;6.314;2023-04-01T08:33:24;12.33;;;7.67;;
10851;SDS011;5479;52.046;6.314;2023-04-01T08:35:55;13.30;;;8.13;;
10851;SDS011;5479;52.046;6.314;2023-04-01T08:38:29;12.83;;;7.93;;
10851;SDS011;5479;52.046;6.314;2023-04-01T08:41:11;13.63;;;8.33;;
10851;SDS011;5479;52.046;6.314;2023-04-01T08:44:04;12.77;;;8.23;;
10851;SDS011;5479;52.046;6.314;2023-04-01T08:46:56;13.33;;;8.40;;
10851;SDS011;5479;52.046;6.314;2023-04-01T08:52:48;15.47;;;8.60;;
10851;SDS011;5479;52.046;6.314;2023-04-01T08:58:34;14.23;;;8.80;;
10851;SDS011;5479;52.046;6.314;2023-04-01T09:01:18;14.50;;;8.50;;
10851;SDS011;5479;52.046;6.314;2023-04-01T09:04:08;13.47;;;8.17;;
10851;SDS011;5479;52.046;6.314;2023-04-01T09:06:51;13.93;;;8.57;;
10851;SDS011;5479;52.046;6.314;2023-04-01T09:09:55;15.13;;;8.47;;
10851;SDS011;5479;52.046;6.314;2023-04-01T09:12:54;14.77;;;9.00;;
10851;SDS011;5479;52.046;6.314;2023-04-01T09:24:40;13.50;;;7.90;;
10851;SDS011;5479;52.046;6.314;2023-04-01T09:27:19;14.80;;;8.37;;
10851;SDS011;5479;52.046;6.314;2023-04-01T09:30:03;13.53;;;8.53;;
10851;SDS011;5479;52.046;6.314;2023-04-01T09:33:00;13.77;;;8.00;;
10851;SDS011;5479;52.046;6.314;2023-04-01T09:35:50;12.93;;;8.13;;
10851;SDS011;5479;52.046;6.314;2023-04-01T09:38:30;12.27;;;8.07;;
10851;SDS011;5479;52.046;6.314;2023-04-01T09:41:18;12.93;;;8.30;;
10851;SDS011;5479;52.046;6.314;2023-04-01T09:44:08;12.07;;;7.67;;
10851;SDS011;5479;52.046;6.314;2023-04-01T09:46:49;10.17;;;7.10;;
10851;SDS011;5479;52.046;6.314;2023-04-01T09:49:45;9.60;;;6.70;;
10851;SDS011;5479;52.046;6.314;2023-04-01T09:52:31;12.30;;;7.47;;
10851;SDS011;5479;52.046;6.314;2023-04-01T09:55:19;9.63;;;6.50;;
10851;SDS011;5479;52.046;6.314;2023-04-01T10:01:42;7.73;;;5.30;;
10851;SDS011;5479;52.046;6.314;2023-04-01T10:10:55;9.57;;;6.27;;
10851;SDS011;5479;52.046;6.314;2023-04-01T10:13:44;9.00;;;5.57;;
10851;SDS011;5479;52.046;6.314;2023-04-01T10:16:44;10.73;;;6.40;;
10851;SDS011;5479;52.046;6.314;2023-04-01T10:19:34;7.80;;;5.53;;
10851;SDS011;5479;52.046;6.314;2023-04-01T10:22:24;8.90;;;5.83;;
10851;SDS011;5479;52.046;6.314;2023-04-01T10:25:16;8.27;;;5.27;;
10851;SDS011;5479;52.046;6.314;2023-04-01T10:37:13;7.53;;;5.07;;
10851;SDS011;5479;52.046;6.314;2023-04-01T10:40:18;7.50;;;5.03;;
10851;SDS011;5479;52.046;6.314;2023-04-01T10:43:25;7.63;;;5.10;;
10851;SDS011;5479;52.046;6.314;2023-04-01T10:49:37;8.27;;;5.10;;
10851;SDS011;5479;52.046;6.314;2023-04-01T10:58:45;9.00;;;4.90;;
10851;SDS011;5479;52.046;6.314;2023-04-01T11:01:40;7.60;;;4.80;;
10851;SDS011;5479;52.046;6.314;2023-04-01T11:11:20;6.10;;;4.13;;
10851;SDS011;5479;52.046;6.314;2023-04-01T11:17:25;5.60;;;3.73;;
10851;SDS011;5479;52.046;6.314;2023-04-01T11:20:13;9.03;;;4.00;;
10851;SDS011;5479;52.046;6.314;2023-04-01T11:22:58;5.60;;;4.20;;
10851;SDS011;5479;52.046;6.314;2023-04-01T11:25:52;5.30;;;3.70;;
10851;SDS011;5479;52.046;6.314;2023-04-01T11:28:40;5.07;;;3.50;;
10851;SDS011;5479;52.046;6.314;2023-04-01T11:31:36;4.97;;;3.30;;
10851;SDS011;5479;52.046;6.314;2023-04-01T11:34:28;4.93;;;3.03;;
10851;SDS011;5479;52.046;6.314;2023-04-01T11:37:14;5.33;;;3.60;;
10851;SDS011;5479;52.046;6.314;2023-04-01T11:39:58;4.93;;;3.13;;
10851;SDS011;5479;52.046;6.314;2023-04-01T11:42:34;4.43;;;3.00;;
10851;SDS011;5479;52.046;6.314;2023-04-01T11:45:19;4.93;;;3.40;;
10851;SDS011;5479;52.046;6.314;2023-04-01T11:48:01;4.63;;;2.83;;
10851;SDS011;5479;52.046;6.314;2023-04-01T11:50:50;4.17;;;2.90;;
10851;SDS011;5479;52.046;6.314;2023-04-01T11:53:35;4.70;;;2.97;;
10851;SDS011;5479;52.046;6.314;2023-04-01T11:56:19;4.87;;;3.03;;
10851;SDS011;5479;52.046;6.314;2023-04-01T11:58:58;4.77;;;2.97;;
10851;SDS011;5479;52.046;6.314;2023-04-01T12:01:52;5.50;;;3.30;;
10851;SDS011;5479;52.046;6.314;2023-04-01T12:10:25;6.50;;;4.40;;
10851;SDS011;5479;52.046;6.314;2023-04-01T12:12:58;5.00;;;3.10;;
10851;SDS011;5479;52.046;6.314;2023-04-01T12:15:35;5.37;;;3.47;;
10851;SDS011;5479;52.046;6.314;2023-04-01T12:18:12;5.73;;;3.27;;
10851;SDS011;5479;52.046;6.314;2023-04-01T12:20:48;4.40;;;2.80;;
10851;SDS011;5479;52.046;6.314;2023-04-01T12:23:28;4.50;;;3.00;;
10851;SDS011;5479;52.046;6.314;2023-04-01T12:29:07;5.07;;;3.20;;
10851;SDS011;5479;52.046;6.314;2023-04-01T12:31:57;4.57;;;2.80;;
10851;SDS011;5479;52.046;6.314;2023-04-01T12:34:39;4.10;;;2.83;;
10851;SDS011;5479;52.046;6.314;2023-04-01T12:37:27;4.90;;;3.50;;
10851;SDS011;5479;52.046;6.314;2023-04-01T12:40:17;4.53;;;2.93;;
10851;SDS011;5479;52.046;6.314;2023-04-01T12:43:02;4.80;;;3.30;;
10851;SDS011;5479;52.046;6.314;2023-04-01T12:45:44;5.40;;;3.13;;
10851;SDS011;5479;52.046;6.314;2023-04-01T12:48:35;4.53;;;3.10;;
10851;SDS011;5479;52.046;6.314;2023-04-01T12:51:28;4.70;;;3.00;;
10851;SDS011;5479;52.046;6.314;2023-04-01T12:54:09;5.23;;;3.30;;
10851;SDS011;5479;52.046;6.314;2023-04-01T12:56:52;5.47;;;3.40;;
10851;SDS011;5479;52.046;6.314;2023-04-01T12:59:36;4.70;;;2.83;;
10851;SDS011;5479;52.046;6.314;2023-04-01T13:02:22;4.33;;;2.90;;
10851;SDS011;5479;52.046;6.314;2023-04-01T13:05:12;4.60;;;3.07;;
10851;SDS011;5479;52.046;6.314;2023-04-01T13:07:53;4.97;;;3.10;;
10851;SDS011;5479;52.046;6.314;2023-04-01T13:10:56;4.07;;;2.77;;
10851;SDS011;5479;52.046;6.314;2023-04-01T13:16:50;4.67;;;2.27;;
10851;SDS011;5479;52.046;6.314;2023-04-01T13:19:25;4.33;;;2.40;;
10851;SDS011;5479;52.046;6.314;2023-04-01T13:22:03;4.87;;;2.53;;
10851;SDS011;5479;52.046;6.314;2023-04-01T13:24:40;4.77;;;2.67;;
10851;SDS011;5479;52.046;6.314;2023-04-01T13:27:15;3.83;;;2.33;;
10851;SDS011;5479;52.046;6.314;2023-04-01T13:29:50;4.87;;;2.77;;
10851;SDS011;5479;52.046;6.314;2023-04-01T13:32:32;5.60;;;2.00;;
10851;SDS011;5479;52.046;6.314;2023-04-01T13:35:16;4.87;;;2.10;;
10851;SDS011;5479;52.046;6.314;2023-04-01T13:37:53;4.07;;;2.00;;
10851;SDS011;5479;52.046;6.314;2023-04-01T13:40:41;5.30;;;2.80;;
10851;SDS011;5479;52.046;6.314;2023-04-01T13:43:22;6.20;;;4.80;;
10851;SDS011;5479;52.046;6.314;2023-04-01T13:46:05;4.37;;;2.80;;
10851;SDS011;5479;52.046;6.314;2023-04-01T13:48:52;3.73;;;2.27;;
10851;SDS011;5479;52.046;6.314;2023-04-01T13:51:47;3.63;;;2.20;;
10851;SDS011;5479;52.046;6.314;2023-04-01T13:57:27;3.97;;;2.40;;
10851;SDS011;5479;52.046;6.314;2023-04-01T14:00:12;4.20;;;2.67;;
10851;SDS011;5479;52.046;6.314;2023-04-01T14:02:54;5.10;;;2.90;;
10851;SDS011;5479;52.046;6.314;2023-04-01T14:05:42;3.67;;;2.37;;
10851;SDS011;5479;52.046;6.314;2023-04-01T14:08:26;4.27;;;2.70;;
10851;SDS011;5479;52.046;6.314;2023-04-01T14:11:07;3.63;;;2.40;;
10851;SDS011;5479;52.046;6.314;2023-04-01T14:13:43;4.20;;;2.90;;
10851;SDS011;5479;52.046;6.314;2023-04-01T14:19:26;4.97;;;2.43;;
10851;SDS011;5479;52.046;6.314;2023-04-01T14:22:09;3.37;;;2.10;;
10851;SDS011;5479;52.046;6.314;2023-04-01T14:24:58;4.00;;;2.50;;
10851;SDS011;5479;52.046;6.314;2023-04-01T14:27:51;4.87;;;3.27;;
10851;SDS011;5479;52.046;6.314;2023-04-01T14:33:26;4.17;;;2.57;;
10851;SDS011;5479;52.046;6.314;2023-04-01T14:36:05;4.10;;;2.73;;
10851;SDS011;5479;52.046;6.314;2023-04-01T14:38:52;5.07;;;3.60;;
10851;SDS011;5479;52.046;6.314;2023-04-01T14:41:32;4.03;;;2.70;;
10851;SDS011;5479;52.046;6.314;2023-04-01T14:44:18;4.10;;;2.93;;
10851;SDS011;5479;52.046;6.314;2023-04-01T14:47:11;5.07;;;3.57;;
10851;SDS011;5479;52.046;6.314;2023-04-01T14:50:02;4.80;;;3.00;;
10851;SDS011;5479;52.046;6.314;2023-04-01T14:52:35;4.53;;;3.10;;
10851;SDS011;5479;52.046;6.314;2023-04-01T14:55:15;4.87;;;3.20;;
10851;SDS011;5479;52.046;6.314;2023-04-01T14:58:04;4.60;;;3.10;;
10851;SDS011;5479;52.046;6.314;2023-04-01T15:00:41;4.50;;;3.00;;
10851;SDS011;5479;52.046;6.314;2023-04-01T15:03:18;4.80;;;3.23;;
10851;SDS011;5479;52.046;6.314;2023-04-01T15:05:52;3.80;;;2.60;;
10851;SDS011;5479;52.046;6.314;2023-04-01T15:08:28;4.40;;;3.00;;
10851;SDS011;5479;52.046;6.314;2023-04-01T15:11:01;4.33;;;3.03;;
10851;SDS011;5479;52.046;6.314;2023-04-01T15:16:47;5.43;;;3.97;;
10851;SDS011;5479;52.046;6.314;2023-04-01T15:19:24;5.33;;;3.60;;
10851;SDS011;5479;52.046;6.314;2023-04-01T15:22:16;6.50;;;4.70;;
10851;SDS011;5479;52.046;6.314;2023-04-01T15:24:59;6.57;;;5.00;;
10851;SDS011;5479;52.046;6.314;2023-04-01T15:27:40;5.97;;;4.37;;
10851;SDS011;5479;52.046;6.314;2023-04-01T15:30:23;5.87;;;4.10;;
10851;SDS011;5479;52.046;6.314;2023-04-01T15:33:01;8.87;;;6.67;;
10851;SDS011;5479;52.046;6.314;2023-04-01T15:35:43;5.67;;;3.97;;
10851;SDS011;5479;52.046;6.314;2023-04-01T15:38:21;5.20;;;3.83;;
10851;SDS011;5479;52.046;6.314;2023-04-01T15:41:01;6.57;;;4.40;;
10851;SDS011;5479;52.046;6.314;2023-04-01T15:43:40;5.70;;;4.53;;
10851;SDS011;5479;52.046;6.314;2023-04-01T15:46:22;5.57;;;4.40;;
10851;SDS011;5479;52.046;6.314;2023-04-01T15:49:15;6.00;;;4.63;;
10851;SDS011;5479;52.046;6.314;2023-04-01T15:52:06;5.90;;;4.50;;
10851;SDS011;5479;52.046;6.314;2023-04-01T15:57:52;6.00;;;4.57;;
10851;SDS011;5479;52.046;6.314;2023-04-01T16:00:34;6.83;;;4.63;;
10851;SDS011;5479;52.046;6.314;2023-04-01T16:03:19;6.43;;;5.03;;
10851;SDS011;5479;52.046;6.314;2023-04-01T16:06:03;6.83;;;5.40;;
10851;SDS011;5479;52.046;6.314;2023-04-01T16:08:55;6.40;;;5.07;;
10851;SDS011;5479;52.046;6.314;2023-04-01T16:11:33;7.90;;;5.57;;
10851;SDS011;5479;52.046;6.314;2023-04-01T16:14:17;6.40;;;5.10;;
10851;SDS011;5479;52.046;6.314;2023-04-01T16:16:58;7.33;;;5.60;;
10851;SDS011;5479;52.046;6.314;2023-04-01T16:19:39;7.10;;;5.70;;
10851;SDS011;5479;52.046;6.314;2023-04-01T16:22:17;6.67;;;5.10;;
10851;SDS011;5479;52.046;6.314;2023-04-01T16:24:51;6.60;;;5.30;;
10851;SDS011;5479;52.046;6.314;2023-04-01T16:27:27;7.53;;;5.30;;
10851;SDS011;5479;52.046;6.314;2023-04-01T16:30:03;7.03;;;5.53;;
10851;SDS011;5479;52.046;6.314;2023-04-01T16:32:57;7.50;;;5.87;;
10851;SDS011;5479;52.046;6.314;2023-04-01T16:35:31;7.50;;;6.00;;
10851;SDS011;5479;52.046;6.314;2023-04-01T16:38:11;7.37;;;5.73;;
10851;SDS011;5479;52.046;6.314;2023-04-01T16:40:46;7.63;;;6.07;;
10851;SDS011;5479;52.046;6.314;2023-04-01T16:43:20;7.27;;;5.97;;
10851;SDS011;5479;52.046;6.314;2023-04-01T16:46:12;7.20;;;5.97;;
10851;SDS011;5479;52.046;6.314;2023-04-01T16:49:00;8.03;;;6.17;;
10851;SDS011;5479;52.046;6.314;2023-04-01T16:51:44;8.10;;;6.23;;
10851;SDS011;5479;52.046;6.314;2023-04-01T16:54:17;8.47;;;6.77;;
10851;SDS011;5479;52.046;6.314;2023-04-01T16:56:55;8.93;;;7.17;;
10851;SDS011;5479;52.046;6.314;2023-04-01T16:59:29;8.60;;;6.60;;
10851;SDS011;5479;52.046;6.314;2023-04-01T17:02:04;9.30;;;7.10;;
10851;SDS011;5479;52.046;6.314;2023-04-01T17:04:41;9.30;;;6.93;;
10851;SDS011;5479;52.046;6.314;2023-04-01T17:07:14;8.33;;;6.87;;
10851;SDS011;5479;52.046;6.314;2023-04-01T17:09:59;8.33;;;6.43;;
10851;SDS011;5479;52.046;6.314;2023-04-01T17:12:43;9.07;;;6.47;;
10851;SDS011;5479;52.046;6.314;2023-04-01T17:15:20;8.57;;;6.73;;
10851;SDS011;5479;52.046;6.314;2023-04-01T17:18:01;9.23;;;7.13;;
10851;SDS011;5479;52.046;6.314;2023-04-01T17:20:41;9.27;;;7.13;;
10851;SDS011;5479;52.046;6.314;2023-04-01T17:23:12;8.47;;;6.90;;
10851;SDS011;5479;52.046;6.314;2023-04-01T17:26:00;9.13;;;7.57;;
10851;SDS011;5479;52.046;6.314;2023-04-01T17:28:45;9.23;;;7.90;;
10851;SDS011;5479;52.046;6.314;2023-04-01T17:31:27;9.40;;;8.17;;
10851;SDS011;5479;52.046;6.314;2023-04-01T17:37:27;10.33;;;8.27;;